sensor_id;sensor_type;location;lat;lon;timestamp;pressure;altitude;pressure_sealevel;temperature;humidity
76201;BME280;64981;52.930;9.266;2023-09-19T00:01:08;100207.41;;;16.44;80.26
76201;BME280;64981;52.930;9.266;2023-09-19T00:03:35;100195.44;;;16.53;80.16
76201;BME280;64981;52.930;9.266;2023-09-19T00:06:03;100196.09;;;16.42;80.19
76201;BME280;64981;52.930;9.266;2023-09-19T00:08:30;100196.34;;;16.40;80.22
76201;BME280;64981;52.930;9.266;2023-09-19T00:10:56;100196.94;;;16.42;80.01
76201;BME280;64981;52.930;9.266;2023-09-19T00:13:29;100198.38;;;16.45;79.60
76201;BME280;64981;52.930;9.266;2023-09-19T00:15:56;100190.22;;;16.33;79.85
76201;BME280;64981;52.930;9.266;2023-09-19T00:18:25;100202.25;;;16.42;79.60
76201;BME280;64981;52.930;9.266;2023-09-19T00:20:58;100196.97;;;16.36;79.99
76201;BME280;64981;52.930;9.266;2023-09-19T00:23:24;100197.78;;;16.36;79.98
76201;BME280;64981;52.930;9.266;2023-09-19T00:25:50;100211.59;;;16.20;80.47
76201;BME280;64981;52.930;9.266;2023-09-19T00:28:17;100216.88;;;16.33;80.04
76201;BME280;64981;52.930;9.266;2023-09-19T00:30:45;100218.69;;;16.39;79.57
76201;BME280;64981;52.930;9.266;2023-09-19T00:33:11;100211.53;;;16.33;79.60
76201;BME280;64981;52.930;9.266;2023-09-19T00:35:51;100227.34;;;16.28;79.90
76201;BME280;64981;52.930;9.266;2023-09-19T00:38:18;100221.78;;;16.36;79.37
76201;BME280;64981;52.930;9.266;2023-09-19T00:40:53;100218.56;;;16.21;80.17
76201;BME280;64981;52.930;9.266;2023-09-19T00:43:20;100229.75;;;16.36;79.66
76201;BME280;64981;52.930;9.266;2023-09-19T00:45:49;100224.66;;;16.35;79.69
76201;BME280;64981;52.930;9.266;2023-09-19T00:48:17;100230.84;;;16.29;79.90
76201;BME280;64981;52.930;9.266;2023-09-19T00:50:46;100230.41;;;16.32;79.68
76201;BME280;64981;52.930;9.266;2023-09-19T00:53:15;100234.06;;;16.37;79.46
76201;BME280;64981;52.930;9.266;2023-09-19T00:55:45;100225.81;;;16.45;79.07
76201;BME280;64981;52.930;9.266;2023-09-19T00:58:11;100226.88;;;16.44;78.73
76201;BME280;64981;52.930;9.266;2023-09-19T01:00:37;100231.56;;;16.49;78.60
76201;BME280;64981;52.930;9.266;2023-09-19T01:03:04;100226.66;;;16.46;78.49
76201;BME280;64981;52.930;9.266;2023-09-19T01:05:33;100236.34;;;16.34;78.54
76201;BME280;64981;52.930;9.266;2023-09-19T01:07:59;100247.25;;;16.26;79.28
76201;BME280;64981;52.930;9.266;2023-09-19T01:10:25;100248.03;;;16.26;79.57
76201;BME280;64981;52.930;9.266;2023-09-19T01:13:04;100238.41;;;16.32;79.07
76201;BME280;64981;52.930;9.266;2023-09-19T01:15:49;100237.16;;;16.41;78.63
76201;BME280;64981;52.930;9.266;2023-09-19T01:18:36;100236.72;;;16.44;78.43
76201;BME280;64981;52.930;9.266;2023-09-19T01:21:28;100239.41;;;16.37;78.22
76201;BME280;64981;52.930;9.266;2023-09-19T01:24:21;100242.28;;;16.36;78.35
76201;BME280;64981;52.930;9.266;2023-09-19T01:27:14;100252.47;;;16.45;77.73
76201;BME280;64981;52.930;9.266;2023-09-19T01:29:46;100248.63;;;16.41;77.66
76201;BME280;64981;52.930;9.266;2023-09-19T01:32:16;100256.66;;;16.28;78.06
76201;BME280;64981;52.930;9.266;2023-09-19T01:34:48;100259.72;;;16.38;77.69
76201;BME280;64981;52.930;9.266;2023-09-19T01:37:15;100259.88;;;16.43;77.07
76201;BME280;64981;52.930;9.266;2023-09-19T01:39:47;100258.50;;;16.34;77.55
76201;BME280;64981;52.930;9.266;2023-09-19T01:42:31;100266.66;;;16.39;77.28
76201;BME280;64981;52.930;9.266;2023-09-19T01:45:12;100272.63;;;16.41;77.01
76201;BME280;64981;52.930;9.266;2023-09-19T01:47:48;100265.69;;;16.27;77.78
76201;BME280;64981;52.930;9.266;2023-09-19T01:50:30;100265.47;;;16.35;77.07
76201;BME280;64981;52.930;9.266;2023-09-19T01:53:04;100262.16;;;16.40;76.60
76201;BME280;64981;52.930;9.266;2023-09-19T01:55:37;100271.81;;;16.34;76.86
76201;BME280;64981;52.930;9.266;2023-09-19T01:58:14;100270.19;;;16.27;77.09
76201;BME280;64981;52.930;9.266;2023-09-19T02:00:44;100272.25;;;16.31;77.22
76201;BME280;64981;52.930;9.266;2023-09-19T02:03:12;100279.78;;;16.47;76.46
76201;BME280;64981;52.930;9.266;2023-09-19T02:05:39;100279.38;;;16.37;76.57
76201;BME280;64981;52.930;9.266;2023-09-19T02:08:05;100283.59;;;16.13;77.50
76201;BME280;64981;52.930;9.266;2023-09-19T02:10:30;100284.78;;;16.17;77.33
76201;BME280;64981;52.930;9.266;2023-09-19T02:12:56;100291.16;;;16.17;77.20
76201;BME280;64981;52.930;9.266;2023-09-19T02:15:22;100294.41;;;16.19;77.24
76201;BME280;64981;52.930;9.266;2023-09-19T02:17:47;100295.44;;;16.11;77.47
76201;BME280;64981;52.930;9.266;2023-09-19T02:20:13;100300.56;;;16.19;77.65
76201;BME280;64981;52.930;9.266;2023-09-19T02:22:42;100304.66;;;16.22;77.56
76201;BME280;64981;52.930;9.266;2023-09-19T02:25:08;100312.00;;;16.33;76.59
76201;BME280;64981;52.930;9.266;2023-09-19T02:27:34;100313.03;;;16.32;75.62
76201;BME280;64981;52.930;9.266;2023-09-19T02:30:00;100306.31;;;16.23;76.25
76201;BME280;64981;52.930;9.266;2023-09-19T02:32:30;100312.25;;;16.18;76.67
76201;BME280;64981;52.930;9.266;2023-09-19T02:34:57;100315.72;;;16.19;75.55
76201;BME280;64981;52.930;9.266;2023-09-19T02:37:24;100321.06;;;16.12;67.88
76201;BME280;64981;52.930;9.266;2023-09-19T02:39:50;100322.72;;;16.20;67.16
76201;BME280;64981;52.930;9.266;2023-09-19T02:42:15;100317.81;;;16.17;67.05
76201;BME280;64981;52.930;9.266;2023-09-19T02:44:41;100322.72;;;16.13;65.34
76201;BME280;64981;52.930;9.266;2023-09-19T02:47:07;100325.41;;;16.06;65.25
76201;BME280;64981;52.930;9.266;2023-09-19T02:49:32;100330.91;;;16.18;63.84
76201;BME280;64981;52.930;9.266;2023-09-19T02:51:58;100328.22;;;16.18;64.38
76201;BME280;64981;52.930;9.266;2023-09-19T02:54:24;100334.59;;;16.04;64.19
76201;BME280;64981;52.930;9.266;2023-09-19T02:56:50;100331.31;;;16.08;63.03
76201;BME280;64981;52.930;9.266;2023-09-19T02:59:16;100330.09;;;16.11;63.30
76201;BME280;64981;52.930;9.266;2023-09-19T03:01:43;100344.19;;;16.31;62.59
76201;BME280;64981;52.930;9.266;2023-09-19T03:04:09;100333.78;;;16.17;63.37
76201;BME280;64981;52.930;9.266;2023-09-19T03:06:37;100331.31;;;16.08;63.70
76201;BME280;64981;52.930;9.266;2023-09-19T03:09:04;100334.59;;;16.10;63.67
76201;BME280;64981;52.930;9.266;2023-09-19T03:11:32;100335.22;;;16.12;63.58
76201;BME280;64981;52.930;9.266;2023-09-19T03:13:58;100340.13;;;16.15;63.42
76201;BME280;64981;52.930;9.266;2023-09-19T03:16:24;100342.78;;;16.15;63.86
76201;BME280;64981;52.930;9.266;2023-09-19T03:18:51;100348.72;;;16.17;63.66
76201;BME280;64981;52.930;9.266;2023-09-19T03:21:17;100343.81;;;16.08;64.31
76201;BME280;64981;52.930;9.266;2023-09-19T03:23:44;100348.94;;;16.16;64.52
76201;BME280;64981;52.930;9.266;2023-09-19T03:26:12;100340.56;;;16.12;64.79
76201;BME280;64981;52.930;9.266;2023-09-19T03:28:38;100350.38;;;16.12;65.08
76201;BME280;64981;52.930;9.266;2023-09-19T03:31:05;100356.13;;;16.09;65.92
76201;BME280;64981;52.930;9.266;2023-09-19T03:33:32;100365.75;;;16.03;66.82
76201;BME280;64981;52.930;9.266;2023-09-19T03:36:00;100359.78;;;16.01;67.42
76201;BME280;64981;52.930;9.266;2023-09-19T03:38:26;100357.16;;;16.08;67.82
76201;BME280;64981;52.930;9.266;2023-09-19T03:40:53;100362.69;;;16.06;67.91
76201;BME280;64981;52.930;9.266;2023-09-19T03:43:19;100353.47;;;16.09;68.65
76201;BME280;64981;52.930;9.266;2023-09-19T03:45:44;100365.13;;;15.95;69.24
76201;BME280;64981;52.930;9.266;2023-09-19T03:48:12;100374.34;;;15.86;70.20
76201;BME280;64981;52.930;9.266;2023-09-19T03:50:39;100374.56;;;15.78;70.57
76201;BME280;64981;52.930;9.266;2023-09-19T03:53:04;100372.09;;;15.76;70.83
76201;BME280;64981;52.930;9.266;2023-09-19T03:55:32;100376.19;;;15.59;71.48
76201;BME280;64981;52.930;9.266;2023-09-19T03:57:58;100371.47;;;15.68;71.30
76201;BME280;64981;52.930;9.266;2023-09-19T04:00:24;100379.69;;;15.73;71.27
76201;BME280;64981;52.930;9.266;2023-09-19T04:02:52;100385.41;;;15.56;72.17
76201;BME280;64981;52.930;9.266;2023-09-19T04:05:18;100379.25;;;15.62;71.62
76201;BME280;64981;52.930;9.266;2023-09-19T04:07:44;100381.50;;;15.59;71.76
76201;BME280;64981;52.930;9.266;2023-09-19T04:10:10;100377.19;;;15.51;71.67
76201;BME280;64981;52.930;9.266;2023-09-19T04:12:37;100390.91;;;15.48;71.91
76201;BME280;64981;52.930;9.266;2023-09-19T04:15:04;100386.22;;;15.50;71.62
76201;BME280;64981;52.930;9.266;2023-09-19T04:17:30;100382.31;;;15.46;71.99
76201;BME280;64981;52.930;9.266;2023-09-19T04:19:58;100384.75;;;15.48;72.21
76201;BME280;64981;52.930;9.266;2023-09-19T04:22:24;100382.72;;;15.50;72.17
76201;BME280;64981;52.930;9.266;2023-09-19T04:24:50;100385.38;;;15.50;72.26
76201;BME280;64981;52.930;9.266;2023-09-19T04:27:15;100395.41;;;15.48;72.41
76201;BME280;64981;52.930;9.266;2023-09-19T04:29:41;100393.53;;;15.42;72.72
76201;BME280;64981;52.930;9.266;2023-09-19T04:32:07;100387.00;;;15.38;73.19
76201;BME280;64981;52.930;9.266;2023-09-19T04:34:33;100401.56;;;15.48;72.79
76201;BME280;64981;52.930;9.266;2023-09-19T04:37:00;100400.72;;;15.48;72.77
76201;BME280;64981;52.930;9.266;2023-09-19T04:39:26;100404.63;;;15.45;72.80
76201;BME280;64981;52.930;9.266;2023-09-19T04:41:52;100391.72;;;15.49;72.84
76201;BME280;64981;52.930;9.266;2023-09-19T04:44:18;100386.63;;;15.54;72.59
76201;BME280;64981;52.930;9.266;2023-09-19T04:46:44;100380.06;;;15.43;73.02
76201;BME280;64981;52.930;9.266;2023-09-19T04:49:11;100386.59;;;15.34;73.34
76201;BME280;64981;52.930;9.266;2023-09-19T04:51:38;100381.66;;;15.25;73.49
76201;BME280;64981;52.930;9.266;2023-09-19T04:54:04;100394.97;;;15.25;73.55
76201;BME280;64981;52.930;9.266;2023-09-19T04:56:29;100389.03;;;15.36;73.25
76201;BME280;64981;52.930;9.266;2023-09-19T04:58:55;100385.75;;;15.27;73.36
76201;BME280;64981;52.930;9.266;2023-09-19T05:01:21;100396.19;;;15.29;72.93
76201;BME280;64981;52.930;9.266;2023-09-19T05:03:48;100393.09;;;15.19;73.28
76201;BME280;64981;52.930;9.266;2023-09-19T05:06:19;100400.47;;;15.23;73.42
76201;BME280;64981;52.930;9.266;2023-09-19T05:08:47;100404.56;;;15.19;73.49
76201;BME280;64981;52.930;9.266;2023-09-19T05:11:17;100408.63;;;15.15;73.29
76201;BME280;64981;52.930;9.266;2023-09-19T05:13:43;100415.59;;;15.16;73.70
76201;BME280;64981;52.930;9.266;2023-09-19T05:16:08;100418.66;;;15.20;73.62
76201;BME280;64981;52.930;9.266;2023-09-19T05:18:35;100431.53;;;15.09;73.61
76201;BME280;64981;52.930;9.266;2023-09-19T05:21:03;100423.13;;;15.06;73.74
76201;BME280;64981;52.930;9.266;2023-09-19T05:23:28;100433.22;;;15.24;73.12
76201;BME280;64981;52.930;9.266;2023-09-19T05:25:54;100437.69;;;15.10;73.56
76201;BME280;64981;52.930;9.266;2023-09-19T05:28:22;100446.28;;;15.12;73.46
76201;BME280;64981;52.930;9.266;2023-09-19T05:30:47;100456.06;;;15.05;73.71
76201;BME280;64981;52.930;9.266;2023-09-19T05:33:14;100453.78;;;15.02;73.94
76201;BME280;64981;52.930;9.266;2023-09-19T05:35:40;100457.50;;;15.07;73.71
76201;BME280;64981;52.930;9.266;2023-09-19T05:38:07;100465.72;;;15.13;73.54
76201;BME280;64981;52.930;9.266;2023-09-19T05:40:34;100457.13;;;15.17;73.31
76201;BME280;64981;52.930;9.266;2023-09-19T05:43:00;100464.69;;;15.07;73.75
76201;BME280;64981;52.930;9.266;2023-09-19T05:45:26;100462.81;;;15.07;73.56
76201;BME280;64981;52.930;9.266;2023-09-19T05:47:52;100458.16;;;15.09;73.78
76201;BME280;64981;52.930;9.266;2023-09-19T05:50:21;100455.16;;;14.98;74.11
76201;BME280;64981;52.930;9.266;2023-09-19T05:52:53;100454.66;;;15.09;73.96
76201;BME280;64981;52.930;9.266;2023-09-19T05:55:19;100458.25;;;15.01;74.17
76201;BME280;64981;52.930;9.266;2023-09-19T05:57:50;100456.09;;;15.12;74.05
76201;BME280;64981;52.930;9.266;2023-09-19T06:00:18;100461.03;;;15.15;74.00
76201;BME280;64981;52.930;9.266;2023-09-19T06:02:50;100464.56;;;15.28;73.75
76201;BME280;64981;52.930;9.266;2023-09-19T06:05:16;100476.81;;;15.29;73.54
76201;BME280;64981;52.930;9.266;2023-09-19T06:07:42;100454.56;;;15.43;73.54
76201;BME280;64981;52.930;9.266;2023-09-19T06:10:07;100469.72;;;15.43;73.06
76201;BME280;64981;52.930;9.266;2023-09-19T06:12:42;100471.38;;;15.44;73.26
76201;BME280;64981;52.930;9.266;2023-09-19T06:15:10;100473.81;;;15.45;73.14
76201;BME280;64981;52.930;9.266;2023-09-19T06:17:42;100483.06;;;15.49;73.05
76201;BME280;64981;52.930;9.266;2023-09-19T06:20:08;100489.03;;;15.64;72.83
76201;BME280;64981;52.930;9.266;2023-09-19T06:22:41;100478.44;;;15.91;71.35
76201;BME280;64981;52.930;9.266;2023-09-19T06:25:08;100471.84;;;15.80;71.63
76201;BME280;64981;52.930;9.266;2023-09-19T06:27:37;100477.00;;;15.88;70.69
76201;BME280;64981;52.930;9.266;2023-09-19T06:30:04;100471.66;;;15.82;71.41
76201;BME280;64981;52.930;9.266;2023-09-19T06:32:29;100476.59;;;15.91;70.42
76201;BME280;64981;52.930;9.266;2023-09-19T06:34:55;100473.13;;;15.91;70.38
76201;BME280;64981;52.930;9.266;2023-09-19T06:37:21;100472.72;;;16.00;70.50
76201;BME280;64981;52.930;9.266;2023-09-19T06:39:47;100481.78;;;16.12;69.82
76201;BME280;64981;52.930;9.266;2023-09-19T06:42:15;100483.16;;;16.02;69.60
76201;BME280;64981;52.930;9.266;2023-09-19T06:44:43;100480.06;;;15.98;69.94
76201;BME280;64981;52.930;9.266;2023-09-19T06:47:08;100487.94;;;16.13;69.05
76201;BME280;64981;52.930;9.266;2023-09-19T06:49:35;100493.25;;;16.13;68.92
76201;BME280;64981;52.930;9.266;2023-09-19T06:52:01;100488.09;;;16.11;68.71
76201;BME280;64981;52.930;9.266;2023-09-19T06:54:27;100483.78;;;16.10;68.65
76201;BME280;64981;52.930;9.266;2023-09-19T06:56:57;100496.69;;;16.00;68.68
76201;BME280;64981;52.930;9.266;2023-09-19T06:59:24;100487.91;;;16.06;68.72
76201;BME280;64981;52.930;9.266;2023-09-19T07:01:50;100499.41;;;16.07;69.18
76201;BME280;64981;52.930;9.266;2023-09-19T07:04:16;100499.78;;;16.17;67.76
76201;BME280;64981;52.930;9.266;2023-09-19T07:06:44;100503.28;;;16.31;67.54
76201;BME280;64981;52.930;9.266;2023-09-19T07:09:11;100503.28;;;16.37;67.54
76201;BME280;64981;52.930;9.266;2023-09-19T07:11:37;100511.50;;;16.29;67.17
76201;BME280;64981;52.930;9.266;2023-09-19T07:14:03;100521.31;;;16.48;67.38
76201;BME280;64981;52.930;9.266;2023-09-19T07:16:28;100524.63;;;16.63;67.07
76201;BME280;64981;52.930;9.266;2023-09-19T07:18:55;100521.31;;;16.75;65.94
76201;BME280;64981;52.930;9.266;2023-09-19T07:21:22;100522.72;;;16.84;65.50
76201;BME280;64981;52.930;9.266;2023-09-19T07:23:48;100525.63;;;16.69;65.40
76201;BME280;64981;52.930;9.266;2023-09-19T07:26:15;100536.50;;;16.74;65.97
76201;BME280;64981;52.930;9.266;2023-09-19T07:28:41;100539.97;;;16.94;65.16
76201;BME280;64981;52.930;9.266;2023-09-19T07:31:07;100543.66;;;16.93;64.43
76201;BME280;64981;52.930;9.266;2023-09-19T07:33:36;100539.56;;;16.78;65.24
76201;BME280;64981;52.930;9.266;2023-09-19T07:36:02;100534.63;;;16.94;64.69
76201;BME280;64981;52.930;9.266;2023-09-19T07:38:27;100538.31;;;17.06;63.76
76201;BME280;64981;52.930;9.266;2023-09-19T07:41:00;100537.66;;;17.17;64.15
76201;BME280;64981;52.930;9.266;2023-09-19T07:43:26;100535.81;;;17.18;63.96
76201;BME280;64981;52.930;9.266;2023-09-19T07:45:52;100537.66;;;17.24;64.05
76201;BME280;64981;52.930;9.266;2023-09-19T07:48:17;100525.50;;;17.35;62.33
76201;BME280;64981;52.930;9.266;2023-09-19T07:50:43;100535.53;;;17.39;62.72
76201;BME280;64981;52.930;9.266;2023-09-19T07:53:09;100526.06;;;17.50;61.90
76201;BME280;64981;52.930;9.266;2023-09-19T07:55:34;100538.94;;;17.59;61.54
76201;BME280;64981;52.930;9.266;2023-09-19T07:58:00;100537.28;;;17.65;62.09
76201;BME280;64981;52.930;9.266;2023-09-19T08:00:26;100530.50;;;17.62;62.06
76201;BME280;64981;52.930;9.266;2023-09-19T08:02:51;100531.00;;;17.84;60.43
76201;BME280;64981;52.930;9.266;2023-09-19T08:05:17;100541.72;;;17.77;60.85
76201;BME280;64981;52.930;9.266;2023-09-19T08:07:45;100541.16;;;17.69;60.54
76201;BME280;64981;52.930;9.266;2023-09-19T08:10:15;100528.63;;;17.69;60.37
76201;BME280;64981;52.930;9.266;2023-09-19T08:12:43;100537.19;;;17.85;60.64
76201;BME280;64981;52.930;9.266;2023-09-19T08:15:13;100529.19;;;17.78;61.33
76201;BME280;64981;52.930;9.266;2023-09-19T08:17:39;100540.88;;;17.84;59.40
76201;BME280;64981;52.930;9.266;2023-09-19T08:20:05;100542.09;;;17.88;60.67
76201;BME280;64981;52.930;9.266;2023-09-19T08:22:31;100547.31;;;17.76;61.08
76201;BME280;64981;52.930;9.266;2023-09-19T08:24:58;100549.81;;;18.09;57.82
76201;BME280;64981;52.930;9.266;2023-09-19T08:27:23;100558.75;;;17.90;59.51
76201;BME280;64981;52.930;9.266;2023-09-19T08:29:52;100553.59;;;17.88;59.22
76201;BME280;64981;52.930;9.266;2023-09-19T08:32:18;100552.78;;;17.88;58.51
76201;BME280;64981;52.930;9.266;2023-09-19T08:34:49;100560.97;;;17.99;59.69
76201;BME280;64981;52.930;9.266;2023-09-19T08:37:15;100555.63;;;17.99;58.88
76201;BME280;64981;52.930;9.266;2023-09-19T08:39:42;100558.09;;;18.01;58.70
76201;BME280;64981;52.930;9.266;2023-09-19T08:42:08;100555.94;;;18.16;58.20
76201;BME280;64981;52.930;9.266;2023-09-19T08:44:37;100554.03;;;18.23;57.48
76201;BME280;64981;52.930;9.266;2023-09-19T08:47:11;100562.66;;;18.50;57.28
76201;BME280;64981;52.930;9.266;2023-09-19T08:52:30;100561.63;;;19.00;54.98
76201;BME280;64981;52.930;9.266;2023-09-19T08:55:02;100564.25;;;19.07;55.02
76201;BME280;64981;52.930;9.266;2023-09-19T08:57:33;100556.66;;;19.22;54.65
76201;BME280;64981;52.930;9.266;2023-09-19T09:00:02;100561.69;;;18.94;54.82
76201;BME280;64981;52.930;9.266;2023-09-19T09:02:37;100559.41;;;18.97;55.69
76201;BME280;64981;52.930;9.266;2023-09-19T09:05:08;100560.34;;;19.03;54.79
76201;BME280;64981;52.930;9.266;2023-09-19T09:07:36;100564.59;;;18.92;55.79
76201;BME280;64981;52.930;9.266;2023-09-19T09:10:03;100564.00;;;18.90;55.21
76201;BME280;64981;52.930;9.266;2023-09-19T09:12:29;100564.59;;;18.92;54.77
76201;BME280;64981;52.930;9.266;2023-09-19T09:14:56;100566.91;;;18.89;55.50
76201;BME280;64981;52.930;9.266;2023-09-19T09:17:24;100569.91;;;18.67;55.87
76201;BME280;64981;52.930;9.266;2023-09-19T09:19:53;100562.81;;;18.55;55.60
76201;BME280;64981;52.930;9.266;2023-09-19T09:22:19;100568.88;;;18.68;54.53
76201;BME280;64981;52.930;9.266;2023-09-19T09:24:57;100571.22;;;18.58;55.52
76201;BME280;64981;52.930;9.266;2023-09-19T09:27:26;100576.91;;;18.44;55.68
76201;BME280;64981;52.930;9.266;2023-09-19T09:29:53;100575.59;;;18.53;56.65
76201;BME280;64981;52.930;9.266;2023-09-19T09:32:22;100574.53;;;18.60;56.81
76201;BME280;64981;52.930;9.266;2023-09-19T09:34:51;100584.75;;;18.95;55.16
76201;BME280;64981;52.930;9.266;2023-09-19T09:37:18;100578.00;;;18.92;55.73
76201;BME280;64981;52.930;9.266;2023-09-19T09:39:55;100566.00;;;18.95;54.84
76201;BME280;64981;52.930;9.266;2023-09-19T09:42:32;100582.91;;;19.13;53.73
76201;BME280;64981;52.930;9.266;2023-09-19T09:45:17;100589.03;;;18.96;53.42
76201;BME280;64981;52.930;9.266;2023-09-19T09:47:47;100581.31;;;18.88;53.81
76201;BME280;64981;52.930;9.266;2023-09-19T09:50:31;100591.06;;;19.00;53.35
76201;BME280;64981;52.930;9.266;2023-09-19T09:53:22;100588.31;;;18.89;54.83
76201;BME280;64981;52.930;9.266;2023-09-19T09:56:08;100580.28;;;18.89;54.43
76201;BME280;64981;52.930;9.266;2023-09-19T09:58:37;100581.38;;;18.81;55.34
76201;BME280;64981;52.930;9.266;2023-09-19T10:01:06;100576.41;;;19.03;54.53
76201;BME280;64981;52.930;9.266;2023-09-19T10:03:37;100585.28;;;19.03;53.28
76201;BME280;64981;52.930;9.266;2023-09-19T10:06:08;100584.13;;;19.17;52.65
76201;BME280;64981;52.930;9.266;2023-09-19T10:09:00;100598.63;;;19.28;52.95
76201;BME280;64981;52.930;9.266;2023-09-19T10:11:30;100591.63;;;19.27;53.19
76201;BME280;64981;52.930;9.266;2023-09-19T10:14:00;100583.00;;;19.25;52.21
76201;BME280;64981;52.930;9.266;2023-09-19T10:16:32;100589.63;;;19.22;52.74
76201;BME280;64981;52.930;9.266;2023-09-19T10:19:02;100597.00;;;19.45;51.73
76201;BME280;64981;52.930;9.266;2023-09-19T10:21:28;100598.34;;;19.36;51.72
76201;BME280;64981;52.930;9.266;2023-09-19T10:23:58;100595.88;;;19.34;51.67
76201;BME280;64981;52.930;9.266;2023-09-19T10:26:27;100590.00;;;19.26;52.57
76201;BME280;64981;52.930;9.266;2023-09-19T10:28:57;100581.13;;;19.44;52.56
76201;BME280;64981;52.930;9.266;2023-09-19T10:31:28;100589.34;;;19.49;51.94
76201;BME280;64981;52.930;9.266;2023-09-19T10:33:55;100576.28;;;19.52;51.36
76201;BME280;64981;52.930;9.266;2023-09-19T10:36:24;100584.41;;;19.46;51.30
76201;BME280;64981;52.930;9.266;2023-09-19T10:38:55;100594.53;;;19.44;51.65
76201;BME280;64981;52.930;9.266;2023-09-19T10:41:25;100592.22;;;19.11;51.67
76201;BME280;64981;52.930;9.266;2023-09-19T10:43:51;100590.13;;;19.13;52.73
76201;BME280;64981;52.930;9.266;2023-09-19T10:46:20;100590.50;;;19.16;52.50
76201;BME280;64981;52.930;9.266;2023-09-19T10:48:46;100590.44;;;19.05;53.55
76201;BME280;64981;52.930;9.266;2023-09-19T10:51:25;100594.38;;;19.20;53.20
76201;BME280;64981;52.930;9.266;2023-09-19T10:54:06;100602.19;;;19.40;53.32
76201;BME280;64981;52.930;9.266;2023-09-19T10:56:42;100594.22;;;19.33;52.14
76201;BME280;64981;52.930;9.266;2023-09-19T10:59:09;100593.94;;;19.23;52.77
76201;BME280;64981;52.930;9.266;2023-09-19T11:01:44;100589.25;;;19.37;52.29
76201;BME280;64981;52.930;9.266;2023-09-19T11:04:27;100588.28;;;19.31;52.63
76201;BME280;64981;52.930;9.266;2023-09-19T11:07:06;100584.19;;;19.65;51.37
76201;BME280;64981;52.930;9.266;2023-09-19T11:09:55;100594.09;;;19.28;52.13
76201;BME280;64981;52.930;9.266;2023-09-19T11:12:47;100569.41;;;19.26;52.19
76201;BME280;64981;52.930;9.266;2023-09-19T11:27:11;100569.06;;;19.53;50.29
76201;BME280;64981;52.930;9.266;2023-09-19T11:29:40;100573.56;;;19.59;50.45
76201;BME280;64981;52.930;9.266;2023-09-19T11:32:06;100572.38;;;19.55;51.03
76201;BME280;64981;52.930;9.266;2023-09-19T11:34:40;100570.25;;;19.57;50.85
76201;BME280;64981;52.930;9.266;2023-09-19T11:40:13;100569.31;;;19.69;49.66
76201;BME280;64981;52.930;9.266;2023-09-19T11:42:43;100565.00;;;19.68;49.87
76201;BME280;64981;52.930;9.266;2023-09-19T11:47:56;100574.50;;;19.46;49.33
76201;BME280;64981;52.930;9.266;2023-09-19T11:50:24;100565.06;;;19.62;49.77
76201;BME280;64981;52.930;9.266;2023-09-19T11:52:51;100565.72;;;19.57;51.17
76201;BME280;64981;52.930;9.266;2023-09-19T11:55:21;100570.13;;;19.52;51.11
76201;BME280;64981;52.930;9.266;2023-09-19T11:57:49;100560.44;;;19.69;49.97
76201;BME280;64981;52.930;9.266;2023-09-19T12:00:17;100557.06;;;19.55;50.22
76201;BME280;64981;52.930;9.266;2023-09-19T12:02:47;100556.75;;;19.70;50.81
76201;BME280;64981;52.930;9.266;2023-09-19T12:05:16;100564.00;;;19.81;50.78
76201;BME280;64981;52.930;9.266;2023-09-19T12:07:43;100560.75;;;19.79;48.74
76201;BME280;64981;52.930;9.266;2023-09-19T12:10:13;100560.31;;;19.94;49.51
76201;BME280;64981;52.930;9.266;2023-09-19T12:12:39;100552.66;;;19.97;48.60
76201;BME280;64981;52.930;9.266;2023-09-19T12:15:07;100552.34;;;19.57;48.13
76201;BME280;64981;52.930;9.266;2023-09-19T12:17:41;100566.75;;;19.74;47.39
76201;BME280;64981;52.930;9.266;2023-09-19T12:20:09;100561.94;;;19.83;47.66
76201;BME280;64981;52.930;9.266;2023-09-19T12:22:43;100569.84;;;19.90;49.02
76201;BME280;64981;52.930;9.266;2023-09-19T12:25:10;100572.16;;;20.04;48.79
76201;BME280;64981;52.930;9.266;2023-09-19T12:27:48;100564.41;;;19.96;48.83
76201;BME280;64981;52.930;9.266;2023-09-19T12:30:28;100561.63;;;20.03;48.21
76201;BME280;64981;52.930;9.266;2023-09-19T12:32:54;100567.84;;;19.73;49.27
76201;BME280;64981;52.930;9.266;2023-09-19T12:35:29;100555.53;;;19.66;49.30
76201;BME280;64981;52.930;9.266;2023-09-19T12:38:00;100561.41;;;19.74;49.85
76201;BME280;64981;52.930;9.266;2023-09-19T12:40:26;100558.59;;;19.69;50.91
76201;BME280;64981;52.930;9.266;2023-09-19T12:42:55;100545.50;;;19.61;49.64
76201;BME280;64981;52.930;9.266;2023-09-19T12:45:21;100554.81;;;19.59;50.39
76201;BME280;64981;52.930;9.266;2023-09-19T12:50:33;100541.81;;;19.92;48.73
76201;BME280;64981;52.930;9.266;2023-09-19T12:52:59;100540.56;;;19.76;49.72
76201;BME280;64981;52.930;9.266;2023-09-19T12:55:29;100541.25;;;20.02;49.88
76201;BME280;64981;52.930;9.266;2023-09-19T12:58:01;100543.41;;;19.93;49.35
76201;BME280;64981;52.930;9.266;2023-09-19T13:00:34;100536.28;;;19.87;49.61
76201;BME280;64981;52.930;9.266;2023-09-19T13:03:11;100541.91;;;19.97;49.11
76201;BME280;64981;52.930;9.266;2023-09-19T13:05:51;100531.25;;;19.79;49.79
76201;BME280;64981;52.930;9.266;2023-09-19T13:08:23;100531.00;;;19.80;49.63
76201;BME280;64981;52.930;9.266;2023-09-19T13:11:03;100530.72;;;19.89;49.38
76201;BME280;64981;52.930;9.266;2023-09-19T13:13:32;100514.47;;;19.83;49.95
76201;BME280;64981;52.930;9.266;2023-09-19T13:15:58;100521.97;;;19.93;49.23
76201;BME280;64981;52.930;9.266;2023-09-19T13:18:25;100507.91;;;20.09;49.20
76201;BME280;64981;52.930;9.266;2023-09-19T13:21:05;100516.66;;;20.05;49.19
76201;BME280;64981;52.930;9.266;2023-09-19T13:23:31;100509.84;;;19.91;49.54